createdAt,value
2018-03-20T00:02:08.629Z,98548.38
2018-03-20T00:04:37.181Z,98544.73
2018-03-20T00:07:05.735Z,98534.62
2018-03-20T00:09:34.425Z,98528.22
2018-03-20T00:12:02.978Z,98515.39
2018-03-20T00:14:32.306Z,98511.12
2018-03-20T00:17:00.933Z,98500.88
2018-03-20T00:19:29.493Z,98492.94
2018-03-20T00:21:58.056Z,98488.63
2018-03-20T00:24:27.808Z,98491.89
2018-03-20T00:26:56.366Z,98489.32
2018-03-20T00:29:24.925Z,98491.77
2018-03-20T00:31:54.480Z,98486.58
2018-03-20T00:34:23.032Z,98489.77
2018-03-20T00:36:51.606Z,98477.63
2018-03-20T00:39:21.251Z,98481.98
2018-03-20T00:41:49.802Z,98470.67
2018-03-20T00:44:18.348Z,98471.33
2018-03-20T00:46:47.214Z,98470.38
2018-03-20T00:49:15.766Z,98462.80
2018-03-20T00:51:44.329Z,98460.28
2018-03-20T00:54:13.704Z,98462.75
2018-03-20T00:56:42.289Z,98464.23
2018-03-20T00:59:10.845Z,98474.97
2018-03-20T01:01:39.738Z,98470.91
2018-03-20T01:04:08.297Z,98464.72
2018-03-20T01:06:36.875Z,98460.04
2018-03-20T01:09:05.549Z,98448.80
2018-03-20T01:11:34.096Z,98440.85
2018-03-20T01:14:02.657Z,98425.80
2018-03-20T01:16:31.351Z,98423.23
2018-03-20T01:18:59.929Z,98425.81
2018-03-20T01:21:28.486Z,98423.84
2018-03-20T01:23:57.144Z,98422.45
2018-03-20T01:26:25.701Z,98423.98
2018-03-20T01:28:55.038Z,98412.38
2018-03-20T01:31:23.972Z,98417.75
2018-03-20T01:33:52.529Z,98415.78
2018-03-20T01:36:21.084Z,98411.23
2018-03-20T01:38:49.699Z,98410.00
2018-03-20T01:41:18.258Z,98412.03
2018-03-20T01:43:46.826Z,98413.68
2018-03-20T01:46:16.196Z,98414.91
2018-03-20T01:48:44.753Z,98408.37
2018-03-20T01:51:13.316Z,98405.00
2018-03-20T01:53:42.132Z,98401.37
2018-03-20T01:56:10.687Z,98401.68
2018-03-20T01:58:39.278Z,98391.97
2018-03-20T02:01:08.189Z,98393.32
2018-03-20T02:03:36.741Z,98387.97
2018-03-20T02:06:05.322Z,98388.05
2018-03-20T02:08:34.012Z,98386.63
2018-03-20T02:11:02.598Z,98387.81
2018-03-20T02:13:31.187Z,98389.78
2018-03-20T02:16:00.008Z,98385.87
2018-03-20T02:18:28.561Z,98379.41
2018-03-20T02:20:57.128Z,98384.17
2018-03-20T02:23:26.353Z,98387.08
2018-03-20T02:25:54.909Z,98384.95
2018-03-20T02:28:23.459Z,98389.31
2018-03-20T02:30:52.081Z,98386.42
2018-03-20T02:33:20.652Z,98390.20
2018-03-20T02:35:49.210Z,98391.88
2018-03-20T02:38:18.593Z,98393.20
2018-03-20T02:40:47.156Z,98388.64
2018-03-20T02:43:15.706Z,98401.28
2018-03-20T02:45:44.533Z,98400.58
2018-03-20T02:48:13.093Z,98400.47
2018-03-20T02:50:41.659Z,98402.79
2018-03-20T02:53:10.289Z,98396.98
2018-03-20T02:55:38.840Z,98405.60
2018-03-20T02:58:07.397Z,98406.05
2018-03-20T03:00:36.781Z,98415.44
2018-03-20T03:03:06.119Z,98408.45
2018-03-20T03:05:35.621Z,98402.00
2018-03-20T03:08:04.451Z,98414.87
2018-03-20T03:10:33.021Z,98421.52
2018-03-20T03:13:01.572Z,98418.12
2018-03-20T03:15:30.952Z,98415.80
2018-03-20T03:18:00.273Z,98417.47
2018-03-20T03:20:29.591Z,98420.09
2018-03-20T03:22:58.201Z,98424.91
2018-03-20T03:25:26.776Z,98420.76
2018-03-20T03:27:55.389Z,98427.59
2018-03-20T03:30:24.002Z,98420.05
2018-03-20T03:32:53.326Z,98424.85
2018-03-20T03:35:21.886Z,98423.64
2018-03-20T03:37:51.384Z,98427.93
2018-03-20T03:40:20.706Z,98428.02
2018-03-20T03:42:49.282Z,98426.11
2018-03-20T03:45:18.736Z,98429.20
2018-03-20T03:47:47.291Z,98434.43
2018-03-20T03:50:15.852Z,98438.87
2018-03-20T03:52:45.214Z,98445.55
2018-03-20T03:55:13.795Z,98446.34
2018-03-20T03:57:42.341Z,98454.68
2018-03-20T04:00:11.033Z,98449.75
2018-03-20T04:02:39.596Z,98452.62
2018-03-20T04:05:08.185Z,98465.77
2018-03-20T04:07:36.977Z,98460.16
2018-03-20T04:10:06.369Z,98462.33
2018-03-20T04:12:34.929Z,98469.89
2018-03-20T04:15:03.744Z,98468.71
2018-03-20T04:17:32.297Z,98470.28
2018-03-20T04:20:00.848Z,98479.73
2018-03-20T04:22:30.245Z,98473.34
2018-03-20T04:24:59.618Z,98477.80
2018-03-20T04:27:28.167Z,98477.63
2018-03-20T04:29:57.049Z,98483.34
2018-03-20T04:32:26.369Z,98484.30
2018-03-20T04:34:54.912Z,98491.78
2018-03-20T04:37:25.197Z,98493.66
2018-03-20T04:39:53.744Z,98499.09
2018-03-20T04:42:22.292Z,98490.39
2018-03-20T04:44:51.047Z,98494.84
2018-03-20T04:47:19.606Z,98499.71
2018-03-20T04:49:48.173Z,98495.47
2018-03-20T04:52:16.772Z,98511.61
2018-03-20T04:54:45.349Z,98509.59
2018-03-20T04:57:13.897Z,98508.33
2018-03-20T04:59:42.756Z,98505.20
2018-03-20T05:02:11.307Z,98515.19
2018-03-20T05:04:39.862Z,98509.22
2018-03-20T05:07:09.232Z,98508.84
2018-03-20T05:09:37.782Z,98508.59
2018-03-20T05:12:06.375Z,98516.48
2018-03-20T05:14:34.983Z,98524.78
2018-03-20T05:17:03.566Z,98520.13
2018-03-20T05:19:32.916Z,98513.41
2018-03-20T05:22:07.624Z,98516.22
2018-03-20T05:24:36.988Z,98523.52
2018-03-20T05:27:05.578Z,98517.53
2018-03-20T05:29:34.218Z,98513.69
2018-03-20T05:32:02.809Z,98515.74
2018-03-20T05:34:31.439Z,98514.90
2018-03-20T05:37:00.073Z,98507.80
2018-03-20T05:39:28.649Z,98508.93
2018-03-20T05:41:57.246Z,98517.66
2018-03-20T05:44:25.869Z,98519.35
2018-03-20T05:47:08.161Z,98516.98
2018-03-20T05:49:42.242Z,98521.55
2018-03-20T05:52:10.837Z,98528.23
2018-03-20T05:54:39.411Z,98532.64
2018-03-20T05:57:08.204Z,98537.36
2018-03-20T05:59:36.754Z,98544.20
2018-03-20T06:02:05.310Z,98542.59
2018-03-20T06:04:34.769Z,98548.99
2018-03-20T06:07:03.329Z,98551.16
2018-03-20T06:09:31.897Z,98559.38
2018-03-20T06:12:00.520Z,98573.77
2018-03-20T06:14:29.090Z,98582.86
2018-03-20T06:16:57.695Z,98586.48
2018-03-20T06:19:26.333Z,98600.56
2018-03-20T06:21:54.920Z,98598.44
2018-03-20T06:24:23.485Z,98601.40
2018-03-20T06:26:53.151Z,98613.06
2018-03-20T06:29:21.721Z,98621.18
2018-03-20T06:31:50.276Z,98620.03
2018-03-20T06:34:18.911Z,98619.59
2018-03-20T06:36:47.482Z,98625.22
2018-03-20T06:39:16.041Z,98620.98
2018-03-20T06:41:44.850Z,98626.12
2018-03-20T06:44:13.402Z,98617.49
2018-03-20T06:46:41.953Z,98619.45
2018-03-20T06:49:11.341Z,98618.55
2018-03-20T06:51:39.910Z,98629.27
2018-03-20T06:54:08.555Z,98633.36
2018-03-20T06:56:37.283Z,98621.84
2018-03-20T06:59:05.851Z,98625.82
2018-03-20T07:01:34.415Z,98636.34
2018-03-20T07:04:03.032Z,98648.22
2018-03-20T07:06:31.603Z,98652.42
2018-03-20T07:09:00.929Z,98648.27
2018-03-20T07:11:29.538Z,98646.02
2018-03-20T07:13:58.865Z,98641.61
2018-03-20T07:16:27.427Z,98633.61
2018-03-20T07:18:56.141Z,98643.78
2018-03-20T07:21:24.709Z,98644.00
2018-03-20T07:23:53.275Z,98638.11
2018-03-20T07:26:22.654Z,98644.94
2018-03-20T07:28:51.220Z,98639.56
2018-03-20T07:31:20.549Z,98633.88
2018-03-20T07:33:50.672Z,98643.80
2018-03-20T07:36:19.998Z,98647.29
2018-03-20T07:38:48.563Z,98650.17
2018-03-20T07:41:17.960Z,98660.23
2018-03-20T07:43:47.285Z,98647.20
2018-03-20T07:46:15.853Z,98666.72
2018-03-20T07:48:45.414Z,98671.64
2018-03-20T07:51:13.977Z,98669.62
2018-03-20T07:53:42.540Z,98661.09
2018-03-20T07:56:11.373Z,98651.23
2018-03-20T07:58:39.925Z,98664.09
2018-03-20T08:01:09.236Z,98662.58
2018-03-20T08:03:38.142Z,98668.47
2018-03-20T08:06:06.701Z,98671.47
2018-03-20T08:08:35.274Z,98670.59
2018-03-20T08:11:03.899Z,98676.49
2018-03-20T08:13:33.291Z,98680.41
2018-03-20T08:16:01.854Z,98694.55
2018-03-20T08:18:30.666Z,98687.64
2018-03-20T08:20:59.228Z,98683.27
2018-03-20T08:23:27.786Z,98685.02
2018-03-20T08:25:57.150Z,98687.56
2018-03-20T08:28:25.712Z,98685.46
2018-03-20T08:30:54.261Z,98679.49
2018-03-20T08:33:23.141Z,98684.83
2018-03-20T08:35:52.458Z,98677.92
2018-03-20T08:38:21.005Z,98683.18
2018-03-20T08:40:49.605Z,98684.68
2018-03-20T08:43:28.109Z,98676.75
2018-03-20T08:45:57.473Z,98674.53
2018-03-20T08:48:26.013Z,98678.28
2018-03-20T08:50:54.905Z,98680.81
2018-03-20T08:53:24.265Z,98680.03
2018-03-20T08:55:52.824Z,98682.95
2018-03-20T08:58:21.368Z,98680.84
2018-03-20T09:00:51.078Z,98677.20
2018-03-20T09:03:19.653Z,98674.14
2018-03-20T09:05:48.965Z,98679.41
2018-03-20T09:08:17.797Z,98688.56
2018-03-20T09:10:46.346Z,98692.53
2018-03-20T09:13:14.897Z,98697.74
2018-03-20T09:15:43.497Z,98703.92
2018-03-20T09:18:12.817Z,98704.64
2018-03-20T09:20:41.373Z,98719.61
2018-03-20T09:23:09.974Z,98718.47
2018-03-20T09:25:38.538Z,98715.26
2018-03-20T09:28:07.089Z,98717.74
2018-03-20T09:30:36.478Z,98722.91
2018-03-20T09:33:05.042Z,98723.23
2018-03-20T09:35:33.658Z,98726.59
2018-03-20T09:38:03.017Z,98730.28
2018-03-20T09:40:32.360Z,98731.20
2018-03-20T09:43:01.825Z,98737.78
2018-03-20T09:45:30.517Z,98737.14
2018-03-20T09:47:59.833Z,98735.37
2018-03-20T09:50:28.422Z,98737.61
2018-03-20T09:52:59.641Z,98737.70
2018-03-20T09:55:28.206Z,98748.38
2018-03-20T09:57:56.761Z,98747.81
2018-03-20T10:00:26.421Z,98745.95
2018-03-20T10:02:54.977Z,98744.13
2018-03-20T10:05:23.554Z,98746.12
2018-03-20T10:07:52.160Z,98750.37
2018-03-20T10:10:20.710Z,98742.94
2018-03-20T10:12:49.256Z,98746.58
2018-03-20T10:15:17.869Z,98740.80
2018-03-20T10:17:46.418Z,98739.40
2018-03-20T10:20:15.039Z,98736.64
2018-03-20T10:22:43.628Z,98754.14
2018-03-20T10:25:12.186Z,98746.34
2018-03-20T10:27:40.807Z,98745.70
2018-03-20T10:30:09.692Z,98754.48
2018-03-20T10:32:38.245Z,98750.13
2018-03-20T10:35:06.801Z,98744.17
2018-03-20T10:37:36.555Z,98739.65
2018-03-20T10:40:05.140Z,98756.44
2018-03-20T10:42:33.697Z,98744.71
2018-03-20T10:45:02.306Z,98748.81
2018-03-20T10:47:30.886Z,98743.45
2018-03-20T10:49:59.545Z,98744.94
2018-03-20T10:52:28.336Z,98741.17
2018-03-20T10:54:56.888Z,98737.22
2018-03-20T10:57:25.443Z,98747.08
2018-03-20T10:59:54.332Z,98741.48
2018-03-20T11:05:20.298Z,98741.36
2018-03-20T11:07:49.060Z,98741.25
2018-03-20T11:10:17.621Z,98745.55
2018-03-20T11:12:46.233Z,98747.44
2018-03-20T11:15:14.784Z,98747.95
2018-03-20T11:17:43.341Z,98743.06
2018-03-20T11:20:12.897Z,98734.11
2018-03-20T11:22:41.456Z,98744.73
2018-03-20T11:25:10.013Z,98749.77
2018-03-20T11:27:39.478Z,98741.80
2018-03-20T11:30:08.033Z,98738.55
2018-03-20T11:32:36.740Z,98731.91
2018-03-20T11:35:05.838Z,98736.55
2018-03-20T11:37:34.518Z,98738.27
2018-03-20T11:40:03.203Z,98744.77
2018-03-20T11:42:32.144Z,98747.17
2018-03-20T11:45:01.496Z,98759.44
2018-03-20T11:47:30.084Z,98752.47
2018-03-20T11:49:59.076Z,98759.34
2018-03-20T11:52:27.717Z,98761.14
2018-03-20T11:54:56.432Z,98766.67
2018-03-20T11:57:25.321Z,98764.77
2018-03-20T11:59:53.967Z,98762.08
2018-03-20T12:02:23.428Z,98759.44
2018-03-20T12:04:52.160Z,98759.98
2018-03-20T12:07:20.897Z,98769.47
2018-03-20T12:09:49.692Z,98777.70
2018-03-20T12:12:18.477Z,98779.48
2018-03-20T12:14:47.026Z,98786.67
2018-03-20T12:17:15.693Z,98785.92
2018-03-20T12:19:45.183Z,118183.98
2018-03-20T12:22:14.604Z,118183.98
2018-03-20T12:24:44.074Z,118183.98
2018-03-20T12:27:13.050Z,118183.98
2018-03-20T12:29:41.833Z,118183.98
2018-03-20T12:32:10.519Z,118183.98
2018-03-20T12:34:39.315Z,98801.26
2018-03-20T12:37:08.001Z,98800.84
2018-03-20T12:39:36.687Z,98806.63
2018-03-20T12:42:05.363Z,98806.68
2018-03-20T12:44:34.058Z,98805.58
2018-03-20T12:47:02.744Z,98802.05
2018-03-20T12:49:31.724Z,98805.28
2018-03-20T12:52:00.426Z,98812.13
2018-03-20T12:54:29.117Z,98811.14
2018-03-20T12:56:57.894Z,98800.55
2018-03-20T12:59:26.579Z,98799.76
2018-03-20T13:01:55.266Z,98800.66
2018-03-20T13:04:24.049Z,98801.28
2018-03-20T13:06:52.737Z,98803.70
2018-03-20T13:09:21.420Z,98810.58
2018-03-20T13:11:50.216Z,98806.77
2018-03-20T13:14:18.902Z,98810.26
2018-03-20T13:16:47.582Z,98808.38
2018-03-20T13:19:16.285Z,98812.86
2018-03-20T13:21:45.772Z,98816.89
2018-03-20T13:24:14.407Z,98831.23
2018-03-20T13:26:43.143Z,98833.62
2018-03-20T13:29:11.829Z,98837.84
2018-03-20T13:31:40.460Z,98829.55
2018-03-20T13:34:09.929Z,98843.99
2018-03-20T13:36:38.601Z,98853.95
2018-03-20T13:39:07.295Z,98854.45
2018-03-20T13:41:36.132Z,98862.08
2018-03-20T13:44:05.573Z,98860.86
2018-03-20T13:46:34.274Z,98860.08
2018-03-20T13:49:03.011Z,98866.55
2018-03-20T13:51:31.745Z,98867.81
2018-03-20T13:54:00.478Z,98867.11
2018-03-20T13:56:30.135Z,98863.88
2018-03-20T13:58:58.783Z,98863.51
2018-03-20T14:01:27.508Z,98855.80
2018-03-20T14:03:56.672Z,98853.52
2018-03-20T14:06:25.395Z,98844.16
2018-03-20T14:08:54.031Z,98853.88
2018-03-20T14:11:23.074Z,98854.59
2018-03-20T14:13:51.716Z,98853.56
2018-03-20T14:16:20.445Z,98853.81
2018-03-20T14:18:49.179Z,98852.80
2018-03-20T14:21:17.915Z,98852.92
2018-03-20T14:23:46.502Z,98851.63
2018-03-20T14:26:15.232Z,98849.94
2018-03-20T14:28:44.646Z,98850.02
2018-03-20T14:31:13.269Z,98855.98
2018-03-20T14:33:42.182Z,98860.74
2018-03-20T14:36:10.777Z,98860.70
2018-03-20T14:38:39.470Z,98861.34
2018-03-20T14:41:08.565Z,98859.33
2018-03-20T14:43:37.206Z,98861.23
2018-03-20T14:46:05.937Z,98865.47
2018-03-20T14:48:35.434Z,98862.52
2018-03-20T14:51:04.088Z,98880.45
2018-03-20T14:53:32.884Z,98882.47
2018-03-20T14:56:01.825Z,98889.50
2018-03-20T14:58:31.292Z,98902.67
2018-03-20T15:01:00.058Z,98905.59
2018-03-20T15:03:28.856Z,98910.13
2018-03-20T15:05:57.640Z,98908.58
2018-03-20T15:08:26.290Z,98910.20
2018-03-20T15:10:55.158Z,98917.23
2018-03-20T15:13:24.625Z,98917.80
2018-03-20T15:15:53.304Z,98919.84
2018-03-20T15:18:22.280Z,98918.41
2018-03-20T15:20:50.986Z,98917.16
2018-03-20T15:23:19.674Z,98920.59
2018-03-20T15:25:48.357Z,98915.51
2018-03-20T15:28:17.040Z,98925.05
2018-03-20T15:30:45.682Z,98927.95
2018-03-20T15:33:14.620Z,98931.61
2018-03-20T15:35:43.265Z,98932.26
2018-03-20T15:38:11.992Z,98930.06
2018-03-20T15:40:40.678Z,98933.82
2018-03-20T15:43:09.365Z,98937.80
2018-03-20T15:45:38.149Z,98933.09
2018-03-20T15:48:06.942Z,98936.97
2018-03-20T15:50:35.630Z,98933.20
2018-03-20T15:53:04.206Z,98937.23
2018-03-20T15:55:33.232Z,98938.92
2018-03-20T15:58:01.994Z,98950.11
2018-03-20T16:00:30.620Z,98947.23
2018-03-20T16:03:00.385Z,98953.29
2018-03-20T16:05:29.057Z,98963.94
2018-03-20T16:07:57.758Z,98968.84
2018-03-20T16:10:26.744Z,98982.19
2018-03-20T16:12:55.436Z,98982.41
2018-03-20T16:15:24.080Z,98987.65
2018-03-20T16:17:52.808Z,98990.84
2018-03-20T16:20:21.493Z,98994.97
2018-03-20T16:22:50.198Z,99003.22
2018-03-20T16:25:18.879Z,98998.52
2018-03-20T16:27:47.453Z,99000.70
2018-03-20T16:30:16.085Z,99003.40
2018-03-20T16:32:45.782Z,99017.64
2018-03-20T16:35:15.203Z,99015.67
2018-03-20T16:37:43.928Z,99023.17
2018-03-20T16:40:12.922Z,99024.60
2018-03-20T16:42:41.509Z,99030.31
2018-03-20T16:45:10.195Z,99029.70
2018-03-20T16:47:39.353Z,99037.88
2018-03-20T16:50:08.081Z,99041.65
2018-03-20T16:52:36.772Z,99052.17
2018-03-20T16:55:05.718Z,99055.11
2018-03-20T16:57:34.340Z,99062.92
2018-03-20T17:00:02.923Z,99073.30
2018-03-20T17:02:31.709Z,99088.95
2018-03-20T17:05:00.342Z,99094.08
2018-03-20T17:07:29.661Z,99110.39
2018-03-20T17:09:58.690Z,99115.43
2018-03-20T17:12:27.455Z,99122.36
2018-03-20T17:14:56.139Z,99124.47
2018-03-20T17:17:25.134Z,99126.58
2018-03-20T17:19:53.818Z,99129.19
2018-03-20T17:22:22.771Z,99134.91
2018-03-20T17:24:51.773Z,99136.92
2018-03-20T17:27:20.329Z,99141.82
2018-03-20T17:29:49.747Z,99143.75
2018-03-20T17:32:18.476Z,99157.76
2018-03-20T17:34:47.162Z,99163.72
2018-03-20T17:37:15.847Z,99169.52
2018-03-20T17:39:44.832Z,99177.77
2018-03-20T17:42:13.489Z,99182.73
2018-03-20T17:44:42.211Z,99188.02
2018-03-20T17:47:10.899Z,99187.98
2018-03-20T17:49:39.593Z,99195.31
2018-03-20T17:52:08.287Z,99194.51
2018-03-20T17:54:37.201Z,99206.50
2018-03-20T17:57:06.660Z,99209.95
2018-03-20T17:59:35.311Z,99211.47
2018-03-20T18:02:05.161Z,99215.47
2018-03-20T18:04:33.796Z,99222.52
2018-03-20T18:07:02.535Z,99227.55
2018-03-20T18:09:31.221Z,99227.50
2018-03-20T18:12:01.442Z,99236.09
2018-03-20T18:14:30.095Z,99235.87
2018-03-20T18:16:58.828Z,99243.08
2018-03-20T18:19:27.404Z,99246.84
2018-03-20T18:21:55.956Z,99240.27
2018-03-20T18:24:24.785Z,99241.92
2018-03-20T18:26:53.341Z,99246.80
2018-03-20T18:29:21.949Z,99239.97
2018-03-20T18:31:50.694Z,99246.42
2018-03-20T18:34:19.418Z,99253.63
2018-03-20T18:36:48.078Z,99253.86
2018-03-20T18:39:17.080Z,99259.23
2018-03-20T18:41:45.791Z,99260.87
2018-03-20T18:44:15.238Z,99260.79
2018-03-20T18:46:44.252Z,99265.58
2018-03-20T18:49:13.723Z,99271.84
2018-03-20T18:51:42.498Z,99272.64
2018-03-20T18:54:11.489Z,99280.99
2018-03-20T18:56:40.078Z,99281.32
2018-03-20T18:59:08.764Z,99275.37
2018-03-20T19:01:37.855Z,99279.43
2018-03-20T19:04:06.540Z,99284.45
2018-03-20T19:06:35.197Z,99289.73
2018-03-20T19:09:04.139Z,99289.80
2018-03-20T19:11:32.781Z,99298.36
2018-03-20T19:14:02.234Z,99301.47
2018-03-20T19:16:31.092Z,99301.34
2018-03-20T19:18:59.653Z,99302.88
2018-03-20T19:21:29.125Z,99309.27
2018-03-20T19:23:58.274Z,99317.80
2018-03-20T19:26:26.989Z,99328.00
2018-03-20T19:28:55.633Z,99325.53
2018-03-20T19:31:24.361Z,99326.09
2018-03-20T19:33:53.049Z,99321.84
2018-03-20T19:36:21.842Z,99332.80
2018-03-20T19:38:50.580Z,99343.51
2018-03-20T19:41:19.315Z,99348.71
2018-03-20T19:43:47.999Z,99351.54
2018-03-20T19:46:16.685Z,99355.86
2018-03-20T19:48:45.271Z,99363.53
2018-03-20T19:51:13.846Z,99368.42
2018-03-20T19:53:42.788Z,99370.09
2018-03-20T19:56:12.249Z,99375.50
2018-03-20T19:58:40.921Z,99377.02
2018-03-20T20:01:09.616Z,99387.30
2018-03-20T20:03:38.308Z,99381.02
2018-03-20T20:06:07.003Z,99383.66
2018-03-20T20:08:35.668Z,99386.27
2018-03-20T20:11:04.365Z,99384.59
2018-03-20T20:13:33.082Z,99390.41
2018-03-20T20:16:02.470Z,99390.69
2018-03-20T20:18:31.193Z,99386.16
2018-03-20T20:20:59.887Z,99388.75
2018-03-20T20:23:28.604Z,99389.48
2018-03-20T20:25:57.249Z,99389.66
2018-03-20T20:28:25.984Z,99394.62
2018-03-20T20:30:54.682Z,99390.25
2018-03-20T20:33:23.353Z,99390.68
2018-03-20T20:35:52.041Z,99395.42
2018-03-20T20:38:21.027Z,99392.36
2018-03-20T20:40:49.715Z,99401.28
2018-03-20T20:43:18.348Z,99403.51
2018-03-20T20:45:47.808Z,99396.33
2018-03-20T20:48:16.494Z,99397.31
2018-03-20T20:50:45.183Z,99396.95
2018-03-20T20:53:13.919Z,99387.56
2018-03-20T20:55:42.588Z,99401.89
2018-03-20T20:58:12.006Z,99404.45
2018-03-20T21:00:40.998Z,99404.59
2018-03-20T21:03:09.728Z,99408.55
2018-03-20T21:05:38.524Z,99405.54
2018-03-20T21:08:07.518Z,99413.23
2018-03-20T21:10:36.247Z,99417.45
2018-03-20T21:13:05.572Z,99412.13
2018-03-20T21:15:34.357Z,99408.89
2018-03-20T21:18:03.072Z,99413.40
2018-03-20T21:20:31.760Z,99417.45
2018-03-20T21:23:00.712Z,99418.35
2018-03-20T21:25:29.404Z,99414.72
2018-03-20T21:27:58.053Z,99417.34
2018-03-20T21:30:27.915Z,99432.62
2018-03-20T21:32:56.624Z,99422.38
2018-03-20T21:35:25.925Z,99422.69
2018-03-20T21:37:54.869Z,99422.37
2018-03-20T21:40:23.425Z,99432.41
2018-03-20T21:42:52.176Z,99442.06
2018-03-20T21:45:20.870Z,99439.95
2018-03-20T21:47:49.520Z,99451.63
2018-03-20T21:50:18.247Z,99458.74
2018-03-20T21:52:47.230Z,99454.70
2018-03-20T21:55:15.926Z,99454.16
2018-03-20T21:57:44.503Z,99459.02
2018-03-20T22:00:13.454Z,99462.02
2018-03-20T22:02:42.181Z,99469.33
2018-03-20T22:05:10.816Z,99482.05
2018-03-20T22:07:39.552Z,99484.53
2018-03-20T22:10:08.105Z,99486.53
2018-03-20T22:12:36.768Z,99492.08
2018-03-20T22:15:06.241Z,99496.11
2018-03-20T22:17:34.952Z,99487.99
2018-03-20T22:20:04.473Z,99481.03
2018-03-20T22:22:33.491Z,99477.56
2018-03-20T22:25:02.196Z,99477.54
2018-03-20T22:27:30.852Z,99481.80
2018-03-20T22:29:59.619Z,99480.19
2018-03-20T22:32:29.037Z,99476.98
2018-03-20T22:34:57.766Z,99483.06
2018-03-20T22:37:26.377Z,99493.14
2018-03-20T22:39:55.851Z,99510.77
2018-03-20T22:42:24.581Z,99504.09
2018-03-20T22:44:54.055Z,99512.44
2018-03-20T22:47:22.821Z,99518.67
2018-03-20T22:49:51.524Z,99524.59
2018-03-20T22:52:21.280Z,99522.53
2018-03-20T22:54:50.018Z,99516.08
2018-03-20T22:57:18.693Z,99516.70
2018-03-20T22:59:47.635Z,99515.95
2018-03-20T23:02:17.061Z,99505.04
2018-03-20T23:04:45.777Z,99494.50
2018-03-20T23:07:14.511Z,99491.88
2018-03-20T23:09:43.982Z,99490.08
2018-03-20T23:12:12.759Z,99486.35
2018-03-20T23:14:41.552Z,99495.97
2018-03-20T23:17:10.242Z,99497.77
2018-03-20T23:19:38.928Z,99499.78
2018-03-20T23:22:07.806Z,99501.48
2018-03-20T23:24:36.439Z,99508.48
2018-03-20T23:27:05.903Z,99510.62
2018-03-20T23:29:34.577Z,99511.05
2018-03-20T23:32:03.128Z,99506.73
2018-03-20T23:34:31.850Z,99511.50
2018-03-20T23:37:00.645Z,99519.38
2018-03-20T23:39:29.331Z,99518.29
2018-03-20T23:41:58.017Z,99520.75
2018-03-20T23:44:26.694Z,99520.29
2018-03-20T23:46:55.390Z,99516.52
2018-03-20T23:49:24.119Z,99514.95
2018-03-20T23:51:53.585Z,99513.48
2018-03-20T23:54:22.150Z,99508.30
2018-03-20T23:56:50.798Z,99510.55
2018-03-20T23:59:19.842Z,99513.97
